Etusivu
METAR-TAF:

METAR-TAF

Lentoasemat :

Chongqing Jiangbein kansainvälinen lentoasema

Chongqing, Kiina

Leveyspiiri: 29-31N, Pituuspiiri: 106-29E, korkeus merenpinnasta: 351 m

Tämänhetkinen sää

Tämä raportti tehtiin 34 minuuttia sitten, kello 17.00 UTC
Tuuli 10 kn pohjoisesta/koillisesta
Lämpötila 28°C
Kosteus 70%
Ilmanpaine 1002 hPa
Näkyvyys 10 km tai enemmän
ei pilviä alle 1500 m:ssä eikä cumulonimbus-pilviä

METAR: ZUCK 201700Z 02005MPS CAVOK 28/22 Q1002 NOSIG

Aika: 01:34 (17:34 UTC)

Sääennuste

Tämä raportti tehtiin 8 tuntia ja 25 minuuttia sitten, kello 09.09 UTC
Ennuste voimassa 20. päivästä klo 12 UTC - 21. päivään klo 12 UTC
Tuuli 6 kn idästä/kaakosta
Näkyvyys: 6000 m
Hajanaisia pilviä 5000 ft:n korkeudessa

TAF: ZUCK 200909Z 2012/2112 12003MPS 6000 SCT050 TX30/2108Z TN22/2021Z

Säähavainnot ja -ennusteet yli 4000 lentoasemalta (METAR- ja TAF-raportit).

Käytössä olevat sääasemat on merkitty karttaan keltaisilla ja punaisilla pisteillä.

Aseta hiiri pisteen päälle nähdäksesi sääaseman nimen.

Klikkaa sitten nähdäksesi säähavainnot ja -ennusteet.

Kartan vaihtaminen: klikkaa mustalla rastilla varustettuja vihreitä pisteitä, niin voit zoomata sisään; viivalla varustettua vihreää pistettä, niin voit zoomata ulos tai vihreitä nuolia, niin pääset viereisille kartoille.


METAR-TAF: